sensor_id;sensor_type;location;lat;lon;timestamp;P1;durP1;ratioP1;P2;durP2;ratioP2
58472;SDS011;44775;51.564;5.460;2022-08-21T00:02:25;15.27;;;9.93;;
58472;SDS011;44775;51.564;5.460;2022-08-21T00:04:52;14.18;;;10.40;;
58472;SDS011;44775;51.564;5.460;2022-08-21T00:07:18;17.77;;;10.30;;
58472;SDS011;44775;51.564;5.460;2022-08-21T00:09:44;16.33;;;10.15;;
58472;SDS011;44775;51.564;5.460;2022-08-21T00:12:10;15.95;;;10.55;;
58472;SDS011;44775;51.564;5.460;2022-08-21T00:14:36;19.90;;;10.60;;
58472;SDS011;44775;51.564;5.460;2022-08-21T00:17:02;15.73;;;9.70;;
58472;SDS011;44775;51.564;5.460;2022-08-21T00:19:29;13.98;;;10.60;;
58472;SDS011;44775;51.564;5.460;2022-08-21T00:21:55;14.48;;;9.88;;
58472;SDS011;44775;51.564;5.460;2022-08-21T00:24:20;16.35;;;9.63;;
58472;SDS011;44775;51.564;5.460;2022-08-21T00:26:47;14.80;;;9.80;;
58472;SDS011;44775;51.564;5.460;2022-08-21T00:29:13;15.63;;;9.25;;
58472;SDS011;44775;51.564;5.460;2022-08-21T00:31:39;17.00;;;10.15;;
58472;SDS011;44775;51.564;5.460;2022-08-21T00:34:05;14.40;;;9.40;;
58472;SDS011;44775;51.564;5.460;2022-08-21T00:36:32;16.40;;;9.05;;
58472;SDS011;44775;51.564;5.460;2022-08-21T00:38:58;14.55;;;9.93;;
58472;SDS011;44775;51.564;5.460;2022-08-21T00:41:24;15.45;;;9.52;;
58472;SDS011;44775;51.564;5.460;2022-08-21T00:43:49;10.68;;;9.10;;
58472;SDS011;44775;51.564;5.460;2022-08-21T00:46:17;13.90;;;9.45;;
58472;SDS011;44775;51.564;5.460;2022-08-21T00:48:42;14.35;;;9.85;;
58472;SDS011;44775;51.564;5.460;2022-08-21T00:51:13;13.27;;;9.60;;
58472;SDS011;44775;51.564;5.460;2022-08-21T00:53:48;12.18;;;9.68;;
58472;SDS011;44775;51.564;5.460;2022-08-21T00:56:18;11.70;;;9.55;;
58472;SDS011;44775;51.564;5.460;2022-08-21T00:58:46;17.50;;;9.57;;
58472;SDS011;44775;51.564;5.460;2022-08-21T01:01:12;12.05;;;9.65;;
58472;SDS011;44775;51.564;5.460;2022-08-21T01:03:38;18.15;;;9.60;;
58472;SDS011;44775;51.564;5.460;2022-08-21T01:06:04;12.95;;;10.10;;
58472;SDS011;44775;51.564;5.460;2022-08-21T01:08:30;13.88;;;9.40;;
58472;SDS011;44775;51.564;5.460;2022-08-21T01:10:57;17.85;;;9.98;;
58472;SDS011;44775;51.564;5.460;2022-08-21T01:13:24;12.85;;;9.52;;
58472;SDS011;44775;51.564;5.460;2022-08-21T01:15:52;14.60;;;9.88;;
58472;SDS011;44775;51.564;5.460;2022-08-21T01:18:19;16.45;;;10.18;;
58472;SDS011;44775;51.564;5.460;2022-08-21T01:20:58;16.55;;;10.35;;
58472;SDS011;44775;51.564;5.460;2022-08-21T01:23:37;14.77;;;10.02;;
58472;SDS011;44775;51.564;5.460;2022-08-21T01:26:04;15.98;;;10.18;;
58472;SDS011;44775;51.564;5.460;2022-08-21T01:28:33;15.63;;;10.07;;
58472;SDS011;44775;51.564;5.460;2022-08-21T01:31:03;16.83;;;10.73;;
58472;SDS011;44775;51.564;5.460;2022-08-21T01:33:32;16.38;;;10.30;;
58472;SDS011;44775;51.564;5.460;2022-08-21T01:35:57;14.15;;;10.25;;
58472;SDS011;44775;51.564;5.460;2022-08-21T01:38:23;13.70;;;10.45;;
58472;SDS011;44775;51.564;5.460;2022-08-21T01:40:49;13.50;;;10.13;;
58472;SDS011;44775;51.564;5.460;2022-08-21T01:43:15;17.05;;;10.38;;
58472;SDS011;44775;51.564;5.460;2022-08-21T01:45:40;15.35;;;10.07;;
58472;SDS011;44775;51.564;5.460;2022-08-21T01:48:06;13.45;;;10.82;;
58472;SDS011;44775;51.564;5.460;2022-08-21T01:50:31;16.40;;;10.57;;
58472;SDS011;44775;51.564;5.460;2022-08-21T01:52:57;13.68;;;10.45;;
58472;SDS011;44775;51.564;5.460;2022-08-21T01:55:22;16.75;;;10.35;;
58472;SDS011;44775;51.564;5.460;2022-08-21T01:57:48;15.40;;;10.93;;
58472;SDS011;44775;51.564;5.460;2022-08-21T02:00:15;16.17;;;10.60;;
58472;SDS011;44775;51.564;5.460;2022-08-21T02:02:42;13.95;;;10.88;;
58472;SDS011;44775;51.564;5.460;2022-08-21T02:05:08;13.57;;;10.20;;
58472;SDS011;44775;51.564;5.460;2022-08-21T02:07:39;13.37;;;10.77;;
58472;SDS011;44775;51.564;5.460;2022-08-21T02:10:07;16.58;;;11.00;;
58472;SDS011;44775;51.564;5.460;2022-08-21T02:12:34;17.40;;;10.43;;
58472;SDS011;44775;51.564;5.460;2022-08-21T02:15:00;14.68;;;10.70;;
58472;SDS011;44775;51.564;5.460;2022-08-21T02:17:27;19.50;;;10.63;;
58472;SDS011;44775;51.564;5.460;2022-08-21T02:19:52;15.90;;;11.27;;
58472;SDS011;44775;51.564;5.460;2022-08-21T02:22:18;16.58;;;11.07;;
58472;SDS011;44775;51.564;5.460;2022-08-21T02:24:43;15.50;;;10.10;;
58472;SDS011;44775;51.564;5.460;2022-08-21T02:27:09;14.20;;;10.35;;
58472;SDS011;44775;51.564;5.460;2022-08-21T02:29:34;13.95;;;10.05;;
58472;SDS011;44775;51.564;5.460;2022-08-21T02:31:59;14.93;;;10.35;;
58472;SDS011;44775;51.564;5.460;2022-08-21T02:34:25;14.43;;;9.90;;
58472;SDS011;44775;51.564;5.460;2022-08-21T02:36:50;16.88;;;11.18;;
58472;SDS011;44775;51.564;5.460;2022-08-21T02:39:16;16.10;;;10.82;;
58472;SDS011;44775;51.564;5.460;2022-08-21T02:41:41;14.55;;;11.45;;
58472;SDS011;44775;51.564;5.460;2022-08-21T02:44:07;18.90;;;11.30;;
58472;SDS011;44775;51.564;5.460;2022-08-21T02:46:32;20.17;;;11.40;;
58472;SDS011;44775;51.564;5.460;2022-08-21T02:48:58;17.13;;;11.68;;
58472;SDS011;44775;51.564;5.460;2022-08-21T02:51:23;14.65;;;12.15;;
58472;SDS011;44775;51.564;5.460;2022-08-21T02:53:50;18.13;;;13.93;;
58472;SDS011;44775;51.564;5.460;2022-08-21T02:56:16;17.25;;;12.43;;
58472;SDS011;44775;51.564;5.460;2022-08-21T02:58:45;17.13;;;12.20;;
58472;SDS011;44775;51.564;5.460;2022-08-21T03:01:13;15.35;;;12.20;;
58472;SDS011;44775;51.564;5.460;2022-08-21T03:03:41;16.27;;;12.65;;
58472;SDS011;44775;51.564;5.460;2022-08-21T03:06:08;18.58;;;13.32;;
58472;SDS011;44775;51.564;5.460;2022-08-21T03:08:35;18.42;;;14.05;;
58472;SDS011;44775;51.564;5.460;2022-08-21T03:11:02;19.42;;;15.65;;
58472;SDS011;44775;51.564;5.460;2022-08-21T03:13:28;18.20;;;14.15;;
58472;SDS011;44775;51.564;5.460;2022-08-21T03:15:55;20.98;;;15.35;;
58472;SDS011;44775;51.564;5.460;2022-08-21T03:18:21;19.48;;;14.98;;
58472;SDS011;44775;51.564;5.460;2022-08-21T03:20:47;22.13;;;14.48;;
58472;SDS011;44775;51.564;5.460;2022-08-21T03:23:13;16.92;;;14.27;;
58472;SDS011;44775;51.564;5.460;2022-08-21T03:25:40;20.08;;;14.50;;
58472;SDS011;44775;51.564;5.460;2022-08-21T03:28:08;21.38;;;14.60;;
58472;SDS011;44775;51.564;5.460;2022-08-21T03:30:36;24.05;;;15.63;;
58472;SDS011;44775;51.564;5.460;2022-08-21T03:33:01;20.33;;;15.80;;
58472;SDS011;44775;51.564;5.460;2022-08-21T03:35:27;21.90;;;16.50;;
58472;SDS011;44775;51.564;5.460;2022-08-21T03:37:54;21.58;;;15.43;;
58472;SDS011;44775;51.564;5.460;2022-08-21T03:40:20;20.08;;;15.25;;
58472;SDS011;44775;51.564;5.460;2022-08-21T03:42:47;19.80;;;14.98;;
58472;SDS011;44775;51.564;5.460;2022-08-21T03:45:14;23.65;;;15.32;;
58472;SDS011;44775;51.564;5.460;2022-08-21T03:50:16;22.73;;;17.13;;
58472;SDS011;44775;51.564;5.460;2022-08-21T03:52:42;22.65;;;17.55;;
58472;SDS011;44775;51.564;5.460;2022-08-21T03:55:08;21.77;;;16.35;;
58472;SDS011;44775;51.564;5.460;2022-08-21T03:57:33;25.75;;;17.08;;
58472;SDS011;44775;51.564;5.460;2022-08-21T03:59:58;23.80;;;16.15;;
58472;SDS011;44775;51.564;5.460;2022-08-21T04:02:24;21.70;;;16.67;;
58472;SDS011;44775;51.564;5.460;2022-08-21T04:04:50;23.17;;;16.20;;
58472;SDS011;44775;51.564;5.460;2022-08-21T04:07:15;24.60;;;15.82;;
58472;SDS011;44775;51.564;5.460;2022-08-21T04:09:41;24.77;;;16.48;;
58472;SDS011;44775;51.564;5.460;2022-08-21T04:12:06;20.52;;;15.85;;
58472;SDS011;44775;51.564;5.460;2022-08-21T04:14:32;23.00;;;16.20;;
58472;SDS011;44775;51.564;5.460;2022-08-21T04:16:58;21.17;;;16.13;;
58472;SDS011;44775;51.564;5.460;2022-08-21T04:19:23;21.85;;;16.55;;
58472;SDS011;44775;51.564;5.460;2022-08-21T04:21:48;25.17;;;17.05;;
58472;SDS011;44775;51.564;5.460;2022-08-21T04:24:14;24.02;;;17.13;;
58472;SDS011;44775;51.564;5.460;2022-08-21T04:26:40;23.08;;;17.08;;
58472;SDS011;44775;51.564;5.460;2022-08-21T04:29:05;22.00;;;17.45;;
58472;SDS011;44775;51.564;5.460;2022-08-21T04:31:31;23.50;;;16.23;;
58472;SDS011;44775;51.564;5.460;2022-08-21T04:33:58;23.20;;;16.27;;
58472;SDS011;44775;51.564;5.460;2022-08-21T04:36:24;22.05;;;16.13;;
58472;SDS011;44775;51.564;5.460;2022-08-21T04:38:50;20.75;;;16.88;;
58472;SDS011;44775;51.564;5.460;2022-08-21T04:41:15;25.52;;;16.55;;
58472;SDS011;44775;51.564;5.460;2022-08-21T04:43:41;23.58;;;18.02;;
58472;SDS011;44775;51.564;5.460;2022-08-21T04:46:07;23.67;;;16.70;;
58472;SDS011;44775;51.564;5.460;2022-08-21T04:48:33;23.25;;;16.40;;
58472;SDS011;44775;51.564;5.460;2022-08-21T04:51:11;20.98;;;16.63;;
58472;SDS011;44775;51.564;5.460;2022-08-21T04:53:50;20.73;;;16.27;;
58472;SDS011;44775;51.564;5.460;2022-08-21T04:56:23;24.90;;;16.30;;
58472;SDS011;44775;51.564;5.460;2022-08-21T04:58:53;20.95;;;14.70;;
58472;SDS011;44775;51.564;5.460;2022-08-21T05:01:23;21.20;;;15.50;;
58472;SDS011;44775;51.564;5.460;2022-08-21T05:03:52;22.23;;;15.88;;
58472;SDS011;44775;51.564;5.460;2022-08-21T05:06:21;27.30;;;15.50;;
58472;SDS011;44775;51.564;5.460;2022-08-21T05:08:49;25.67;;;14.60;;
58472;SDS011;44775;51.564;5.460;2022-08-21T05:11:18;20.05;;;14.18;;
58472;SDS011;44775;51.564;5.460;2022-08-21T05:13:44;22.75;;;14.38;;
58472;SDS011;44775;51.564;5.460;2022-08-21T05:16:10;24.10;;;14.30;;
58472;SDS011;44775;51.564;5.460;2022-08-21T05:18:35;22.85;;;14.52;;
58472;SDS011;44775;51.564;5.460;2022-08-21T05:21:01;19.02;;;13.98;;
58472;SDS011;44775;51.564;5.460;2022-08-21T05:23:27;18.67;;;13.52;;
58472;SDS011;44775;51.564;5.460;2022-08-21T05:25:52;18.60;;;13.32;;
58472;SDS011;44775;51.564;5.460;2022-08-21T05:28:18;21.58;;;13.13;;
58472;SDS011;44775;51.564;5.460;2022-08-21T05:30:44;22.60;;;12.90;;
58472;SDS011;44775;51.564;5.460;2022-08-21T05:33:10;19.52;;;12.18;;
58472;SDS011;44775;51.564;5.460;2022-08-21T05:35:36;22.42;;;12.07;;
58472;SDS011;44775;51.564;5.460;2022-08-21T05:38:03;21.73;;;11.90;;
58472;SDS011;44775;51.564;5.460;2022-08-21T05:40:29;19.05;;;12.27;;
58472;SDS011;44775;51.564;5.460;2022-08-21T05:42:55;16.95;;;11.13;;
58472;SDS011;44775;51.564;5.460;2022-08-21T05:45:23;18.50;;;10.45;;
58472;SDS011;44775;51.564;5.460;2022-08-21T05:47:51;16.63;;;10.90;;
58472;SDS011;44775;51.564;5.460;2022-08-21T05:50:16;19.75;;;10.98;;
58472;SDS011;44775;51.564;5.460;2022-08-21T05:52:42;17.88;;;10.75;;
58472;SDS011;44775;51.564;5.460;2022-08-21T05:55:07;15.43;;;10.70;;
58472;SDS011;44775;51.564;5.460;2022-08-21T05:57:33;18.35;;;9.85;;
58472;SDS011;44775;51.564;5.460;2022-08-21T05:59:58;18.73;;;10.13;;
58472;SDS011;44775;51.564;5.460;2022-08-21T06:02:23;16.20;;;9.85;;
58472;SDS011;44775;51.564;5.460;2022-08-21T06:04:49;17.10;;;9.80;;
58472;SDS011;44775;51.564;5.460;2022-08-21T06:07:14;16.38;;;9.32;;
58472;SDS011;44775;51.564;5.460;2022-08-21T06:09:40;18.40;;;9.40;;
58472;SDS011;44775;51.564;5.460;2022-08-21T06:12:10;16.27;;;9.10;;
58472;SDS011;44775;51.564;5.460;2022-08-21T06:14:38;13.27;;;7.70;;
58472;SDS011;44775;51.564;5.460;2022-08-21T06:17:05;16.15;;;8.55;;
58472;SDS011;44775;51.564;5.460;2022-08-21T06:19:32;13.75;;;9.05;;
58472;SDS011;44775;51.564;5.460;2022-08-21T06:21:58;16.08;;;8.25;;
58472;SDS011;44775;51.564;5.460;2022-08-21T06:24:24;15.73;;;8.52;;
58472;SDS011;44775;51.564;5.460;2022-08-21T06:26:50;14.75;;;7.70;;
58472;SDS011;44775;51.564;5.460;2022-08-21T06:29:15;13.20;;;8.45;;
58472;SDS011;44775;51.564;5.460;2022-08-21T06:31:42;14.65;;;8.02;;
58472;SDS011;44775;51.564;5.460;2022-08-21T06:34:08;15.35;;;7.57;;
58472;SDS011;44775;51.564;5.460;2022-08-21T06:36:34;17.42;;;8.10;;
58472;SDS011;44775;51.564;5.460;2022-08-21T06:38:59;12.32;;;7.38;;
58472;SDS011;44775;51.564;5.460;2022-08-21T06:41:25;13.65;;;7.40;;
58472;SDS011;44775;51.564;5.460;2022-08-21T06:43:50;12.65;;;6.78;;
58472;SDS011;44775;51.564;5.460;2022-08-21T06:46:16;14.95;;;6.80;;
58472;SDS011;44775;51.564;5.460;2022-08-21T06:48:41;13.82;;;7.05;;
58472;SDS011;44775;51.564;5.460;2022-08-21T06:51:07;12.05;;;6.72;;
58472;SDS011;44775;51.564;5.460;2022-08-21T06:53:32;13.80;;;6.50;;
58472;SDS011;44775;51.564;5.460;2022-08-21T06:55:58;15.23;;;6.63;;
58472;SDS011;44775;51.564;5.460;2022-08-21T06:58:24;12.45;;;6.65;;
58472;SDS011;44775;51.564;5.460;2022-08-21T07:00:50;12.60;;;6.90;;
58472;SDS011;44775;51.564;5.460;2022-08-21T07:03:36;11.88;;;7.03;;
58472;SDS011;44775;51.564;5.460;2022-08-21T07:06:04;10.90;;;6.55;;
58472;SDS011;44775;51.564;5.460;2022-08-21T07:08:31;13.70;;;6.75;;
58472;SDS011;44775;51.564;5.460;2022-08-21T07:10:58;11.40;;;6.90;;
58472;SDS011;44775;51.564;5.460;2022-08-21T07:13:25;13.20;;;7.20;;
58472;SDS011;44775;51.564;5.460;2022-08-21T07:15:51;14.05;;;6.93;;
58472;SDS011;44775;51.564;5.460;2022-08-21T07:18:16;15.65;;;6.80;;
58472;SDS011;44775;51.564;5.460;2022-08-21T07:20:42;11.80;;;6.68;;
58472;SDS011;44775;51.564;5.460;2022-08-21T07:23:09;16.33;;;6.90;;
58472;SDS011;44775;51.564;5.460;2022-08-21T07:25:37;14.48;;;6.80;;
58472;SDS011;44775;51.564;5.460;2022-08-21T07:28:03;12.63;;;6.85;;
58472;SDS011;44775;51.564;5.460;2022-08-21T07:30:28;11.93;;;6.22;;
58472;SDS011;44775;51.564;5.460;2022-08-21T07:32:54;12.38;;;6.20;;
58472;SDS011;44775;51.564;5.460;2022-08-21T07:35:20;14.88;;;6.45;;
58472;SDS011;44775;51.564;5.460;2022-08-21T07:37:46;13.82;;;5.90;;
58472;SDS011;44775;51.564;5.460;2022-08-21T07:40:11;14.00;;;6.03;;
58472;SDS011;44775;51.564;5.460;2022-08-21T07:42:41;14.07;;;6.13;;
58472;SDS011;44775;51.564;5.460;2022-08-21T07:45:08;13.57;;;6.47;;
58472;SDS011;44775;51.564;5.460;2022-08-21T07:47:34;13.80;;;6.13;;
58472;SDS011;44775;51.564;5.460;2022-08-21T07:50:00;11.38;;;5.60;;
58472;SDS011;44775;51.564;5.460;2022-08-21T07:52:25;13.55;;;5.30;;
58472;SDS011;44775;51.564;5.460;2022-08-21T07:54:51;13.85;;;5.53;;
58472;SDS011;44775;51.564;5.460;2022-08-21T07:57:16;11.65;;;5.43;;
58472;SDS011;44775;51.564;5.460;2022-08-21T07:59:42;12.23;;;5.15;;
58472;SDS011;44775;51.564;5.460;2022-08-21T08:02:07;13.25;;;5.45;;
58472;SDS011;44775;51.564;5.460;2022-08-21T08:04:33;13.88;;;5.43;;
58472;SDS011;44775;51.564;5.460;2022-08-21T08:06:58;10.68;;;4.72;;
58472;SDS011;44775;51.564;5.460;2022-08-21T08:09:23;10.38;;;4.32;;
58472;SDS011;44775;51.564;5.460;2022-08-21T08:11:49;12.73;;;4.32;;
58472;SDS011;44775;51.564;5.460;2022-08-21T08:14:14;10.77;;;3.97;;
58472;SDS011;44775;51.564;5.460;2022-08-21T08:16:40;12.10;;;3.97;;
58472;SDS011;44775;51.564;5.460;2022-08-21T08:19:06;9.23;;;3.60;;
58472;SDS011;44775;51.564;5.460;2022-08-21T08:21:32;12.30;;;3.88;;
58472;SDS011;44775;51.564;5.460;2022-08-21T08:23:59;13.60;;;3.50;;
58472;SDS011;44775;51.564;5.460;2022-08-21T08:26:25;7.70;;;3.13;;
58472;SDS011;44775;51.564;5.460;2022-08-21T08:28:50;12.18;;;3.42;;
58472;SDS011;44775;51.564;5.460;2022-08-21T08:31:16;10.30;;;3.30;;
58472;SDS011;44775;51.564;5.460;2022-08-21T08:33:41;11.35;;;3.17;;
58472;SDS011;44775;51.564;5.460;2022-08-21T08:36:12;9.02;;;2.88;;
58472;SDS011;44775;51.564;5.460;2022-08-21T08:38:42;8.57;;;3.15;;
58472;SDS011;44775;51.564;5.460;2022-08-21T08:43:41;8.75;;;3.13;;
58472;SDS011;44775;51.564;5.460;2022-08-21T08:46:13;9.10;;;3.08;;
58472;SDS011;44775;51.564;5.460;2022-08-21T08:48:45;8.48;;;2.67;;
58472;SDS011;44775;51.564;5.460;2022-08-21T08:51:25;8.25;;;3.40;;
58472;SDS011;44775;51.564;5.460;2022-08-21T08:54:05;10.98;;;3.13;;
58472;SDS011;44775;51.564;5.460;2022-08-21T08:56:35;9.90;;;2.85;;
58472;SDS011;44775;51.564;5.460;2022-08-21T08:59:08;11.65;;;3.28;;
58472;SDS011;44775;51.564;5.460;2022-08-21T09:01:40;7.43;;;2.80;;
58472;SDS011;44775;51.564;5.460;2022-08-21T09:04:05;13.00;;;3.60;;
58472;SDS011;44775;51.564;5.460;2022-08-21T09:06:37;8.23;;;2.70;;
58472;SDS011;44775;51.564;5.460;2022-08-21T09:09:28;8.35;;;3.13;;
58472;SDS011;44775;51.564;5.460;2022-08-21T09:12:06;9.52;;;3.10;;
58472;SDS011;44775;51.564;5.460;2022-08-21T09:15:12;8.95;;;3.00;;
58472;SDS011;44775;51.564;5.460;2022-08-21T09:26:02;7.82;;;2.10;;
58472;SDS011;44775;51.564;5.460;2022-08-21T09:28:33;7.35;;;2.20;;
58472;SDS011;44775;51.564;5.460;2022-08-21T09:31:00;10.03;;;2.10;;
58472;SDS011;44775;51.564;5.460;2022-08-21T09:33:28;6.95;;;2.60;;
58472;SDS011;44775;51.564;5.460;2022-08-21T09:35:54;8.55;;;2.38;;
58472;SDS011;44775;51.564;5.460;2022-08-21T09:38:28;8.18;;;2.30;;
58472;SDS011;44775;51.564;5.460;2022-08-21T09:40:58;6.70;;;2.42;;
58472;SDS011;44775;51.564;5.460;2022-08-21T09:43:34;6.88;;;2.50;;
58472;SDS011;44775;51.564;5.460;2022-08-21T09:46:02;8.68;;;2.28;;
58472;SDS011;44775;51.564;5.460;2022-08-21T09:48:27;9.25;;;2.25;;
58472;SDS011;44775;51.564;5.460;2022-08-21T09:51:04;7.93;;;2.15;;
58472;SDS011;44775;51.564;5.460;2022-08-21T09:53:33;7.45;;;2.50;;
58472;SDS011;44775;51.564;5.460;2022-08-21T09:56:02;6.18;;;2.30;;
58472;SDS011;44775;51.564;5.460;2022-08-21T09:58:48;6.28;;;1.90;;
58472;SDS011;44775;51.564;5.460;2022-08-21T10:01:17;5.80;;;2.15;;
58472;SDS011;44775;51.564;5.460;2022-08-21T10:03:48;7.32;;;2.00;;
58472;SDS011;44775;51.564;5.460;2022-08-21T10:06:27;7.13;;;2.13;;
58472;SDS011;44775;51.564;5.460;2022-08-21T10:09:06;7.13;;;2.20;;
58472;SDS011;44775;51.564;5.460;2022-08-21T10:11:34;6.13;;;2.03;;
58472;SDS011;44775;51.564;5.460;2022-08-21T10:24:33;7.10;;;1.88;;
58472;SDS011;44775;51.564;5.460;2022-08-21T10:27:15;8.70;;;2.00;;
58472;SDS011;44775;51.564;5.460;2022-08-21T10:29:47;7.05;;;1.83;;
58472;SDS011;44775;51.564;5.460;2022-08-21T10:32:37;6.15;;;2.05;;
58472;SDS011;44775;51.564;5.460;2022-08-21T10:35:31;6.47;;;2.20;;
58472;SDS011;44775;51.564;5.460;2022-08-21T10:40:45;5.43;;;2.03;;
58472;SDS011;44775;51.564;5.460;2022-08-21T10:43:32;5.85;;;2.08;;
58472;SDS011;44775;51.564;5.460;2022-08-21T10:48:37;6.55;;;2.40;;
58472;SDS011;44775;51.564;5.460;2022-08-21T10:51:27;5.70;;;2.10;;
58472;SDS011;44775;51.564;5.460;2022-08-21T10:54:09;5.97;;;2.30;;
58472;SDS011;44775;51.564;5.460;2022-08-21T10:56:44;8.38;;;2.88;;
58472;SDS011;44775;51.564;5.460;2022-08-21T11:04:20;7.15;;;2.30;;
58472;SDS011;44775;51.564;5.460;2022-08-21T11:07:03;5.60;;;2.15;;
58472;SDS011;44775;51.564;5.460;2022-08-21T11:09:37;6.68;;;2.58;;
58472;SDS011;44775;51.564;5.460;2022-08-21T11:12:29;6.68;;;2.30;;
58472;SDS011;44775;51.564;5.460;2022-08-21T11:18:24;4.57;;;2.53;;
58472;SDS011;44775;51.564;5.460;2022-08-21T11:24:02;6.55;;;2.28;;
58472;SDS011;44775;51.564;5.460;2022-08-21T11:29:29;5.90;;;2.13;;
58472;SDS011;44775;51.564;5.460;2022-08-21T11:40:09;4.82;;;1.70;;
58472;SDS011;44775;51.564;5.460;2022-08-21T11:51:15;4.95;;;1.52;;
58472;SDS011;44775;51.564;5.460;2022-08-21T11:53:50;5.00;;;1.70;;
58472;SDS011;44775;51.564;5.460;2022-08-21T11:56:28;6.85;;;1.80;;
58472;SDS011;44775;51.564;5.460;2022-08-21T11:58:59;7.38;;;1.70;;
58472;SDS011;44775;51.564;5.460;2022-08-21T12:01:31;5.90;;;1.65;;
58472;SDS011;44775;51.564;5.460;2022-08-21T12:04:02;5.78;;;1.70;;
58472;SDS011;44775;51.564;5.460;2022-08-21T12:06:34;4.35;;;1.73;;
58472;SDS011;44775;51.564;5.460;2022-08-21T12:09:06;4.65;;;1.60;;
58472;SDS011;44775;51.564;5.460;2022-08-21T12:11:45;6.97;;;1.63;;
58472;SDS011;44775;51.564;5.460;2022-08-21T12:14:15;6.90;;;1.67;;
58472;SDS011;44775;51.564;5.460;2022-08-21T12:16:44;5.22;;;1.60;;
58472;SDS011;44775;51.564;5.460;2022-08-21T12:19:14;5.15;;;1.52;;
58472;SDS011;44775;51.564;5.460;2022-08-21T12:29:52;3.70;;;1.30;;
58472;SDS011;44775;51.564;5.460;2022-08-21T12:32:27;4.85;;;1.50;;
58472;SDS011;44775;51.564;5.460;2022-08-21T12:34:57;4.88;;;1.63;;
58472;SDS011;44775;51.564;5.460;2022-08-21T12:37:45;7.63;;;2.00;;
58472;SDS011;44775;51.564;5.460;2022-08-21T12:42:47;7.20;;;1.60;;
58472;SDS011;44775;51.564;5.460;2022-08-21T12:45:26;5.13;;;1.42;;
58472;SDS011;44775;51.564;5.460;2022-08-21T12:50:36;6.63;;;1.67;;
58472;SDS011;44775;51.564;5.460;2022-08-21T12:53:04;9.48;;;1.70;;
58472;SDS011;44775;51.564;5.460;2022-08-21T12:55:35;6.28;;;1.60;;
58472;SDS011;44775;51.564;5.460;2022-08-21T12:58:06;6.88;;;1.77;;
58472;SDS011;44775;51.564;5.460;2022-08-21T13:00:32;5.18;;;1.60;;
58472;SDS011;44775;51.564;5.460;2022-08-21T13:02:57;5.03;;;1.70;;
58472;SDS011;44775;51.564;5.460;2022-08-21T13:05:33;4.80;;;1.60;;
58472;SDS011;44775;51.564;5.460;2022-08-21T13:10:31;5.72;;;1.60;;
58472;SDS011;44775;51.564;5.460;2022-08-21T13:12:59;6.43;;;1.80;;
58472;SDS011;44775;51.564;5.460;2022-08-21T13:15:32;4.57;;;1.60;;
58472;SDS011;44775;51.564;5.460;2022-08-21T13:18:00;5.93;;;1.58;;
58472;SDS011;44775;51.564;5.460;2022-08-21T13:20:32;7.40;;;1.52;;
58472;SDS011;44775;51.564;5.460;2022-08-21T13:23:00;7.10;;;1.65;;
58472;SDS011;44775;51.564;5.460;2022-08-21T13:25:28;5.60;;;1.15;;
58472;SDS011;44775;51.564;5.460;2022-08-21T13:28:09;7.80;;;1.50;;
58472;SDS011;44775;51.564;5.460;2022-08-21T13:30:43;4.93;;;1.65;;
58472;SDS011;44775;51.564;5.460;2022-08-21T13:33:17;5.33;;;1.23;;
58472;SDS011;44775;51.564;5.460;2022-08-21T13:38:12;5.50;;;1.30;;
58472;SDS011;44775;51.564;5.460;2022-08-21T13:40:44;5.50;;;1.40;;
58472;SDS011;44775;51.564;5.460;2022-08-21T13:43:13;5.53;;;1.70;;
58472;SDS011;44775;51.564;5.460;2022-08-21T13:45:43;5.80;;;1.70;;
58472;SDS011;44775;51.564;5.460;2022-08-21T13:48:12;5.88;;;1.50;;
58472;SDS011;44775;51.564;5.460;2022-08-21T13:50:37;7.45;;;1.88;;
58472;SDS011;44775;51.564;5.460;2022-08-21T13:55:38;6.18;;;1.50;;
58472;SDS011;44775;51.564;5.460;2022-08-21T13:58:06;5.97;;;1.73;;
58472;SDS011;44775;51.564;5.460;2022-08-21T14:00:34;6.07;;;1.87;;
58472;SDS011;44775;51.564;5.460;2022-08-21T14:03:09;5.75;;;1.70;;
58472;SDS011;44775;51.564;5.460;2022-08-21T14:05:37;7.82;;;1.40;;
58472;SDS011;44775;51.564;5.460;2022-08-21T14:08:21;5.68;;;1.58;;
58472;SDS011;44775;51.564;5.460;2022-08-21T14:10:50;7.38;;;1.80;;
58472;SDS011;44775;51.564;5.460;2022-08-21T14:16:02;5.20;;;1.60;;
58472;SDS011;44775;51.564;5.460;2022-08-21T14:18:34;6.57;;;1.38;;
58472;SDS011;44775;51.564;5.460;2022-08-21T14:21:09;5.05;;;1.40;;
58472;SDS011;44775;51.564;5.460;2022-08-21T14:23:35;4.72;;;1.40;;
58472;SDS011;44775;51.564;5.460;2022-08-21T14:26:02;5.32;;;1.40;;
58472;SDS011;44775;51.564;5.460;2022-08-21T14:28:34;5.55;;;1.52;;
58472;SDS011;44775;51.564;5.460;2022-08-21T14:31:12;5.70;;;1.42;;
58472;SDS011;44775;51.564;5.460;2022-08-21T14:33:41;6.38;;;1.65;;
58472;SDS011;44775;51.564;5.460;2022-08-21T14:36:06;5.60;;;1.35;;
58472;SDS011;44775;51.564;5.460;2022-08-21T14:38:32;5.53;;;1.67;;
58472;SDS011;44775;51.564;5.460;2022-08-21T14:41:04;7.60;;;1.92;;
58472;SDS011;44775;51.564;5.460;2022-08-21T14:43:35;7.25;;;1.80;;
58472;SDS011;44775;51.564;5.460;2022-08-21T14:46:01;6.05;;;1.83;;
58472;SDS011;44775;51.564;5.460;2022-08-21T14:48:27;7.80;;;1.60;;
58472;SDS011;44775;51.564;5.460;2022-08-21T14:50:52;5.97;;;1.88;;
58472;SDS011;44775;51.564;5.460;2022-08-21T14:53:18;7.00;;;1.90;;
58472;SDS011;44775;51.564;5.460;2022-08-21T14:55:46;8.85;;;2.13;;
58472;SDS011;44775;51.564;5.460;2022-08-21T14:58:30;6.03;;;1.50;;
58472;SDS011;44775;51.564;5.460;2022-08-21T15:00:56;7.70;;;1.65;;
58472;SDS011;44775;51.564;5.460;2022-08-21T15:03:23;6.82;;;1.70;;
58472;SDS011;44775;51.564;5.460;2022-08-21T15:05:50;5.83;;;1.70;;
58472;SDS011;44775;51.564;5.460;2022-08-21T15:08:16;7.05;;;1.50;;
58472;SDS011;44775;51.564;5.460;2022-08-21T15:10:42;4.78;;;1.40;;
58472;SDS011;44775;51.564;5.460;2022-08-21T15:13:08;5.10;;;1.52;;
58472;SDS011;44775;51.564;5.460;2022-08-21T15:15:34;6.95;;;1.48;;
58472;SDS011;44775;51.564;5.460;2022-08-21T15:18:04;6.72;;;1.75;;
58472;SDS011;44775;51.564;5.460;2022-08-21T15:20:30;4.13;;;1.27;;
58472;SDS011;44775;51.564;5.460;2022-08-21T15:22:55;4.95;;;1.20;;
58472;SDS011;44775;51.564;5.460;2022-08-21T15:25:21;4.63;;;1.45;;
58472;SDS011;44775;51.564;5.460;2022-08-21T15:27:46;5.65;;;1.27;;
58472;SDS011;44775;51.564;5.460;2022-08-21T15:30:13;5.05;;;1.33;;
58472;SDS011;44775;51.564;5.460;2022-08-21T15:32:38;5.80;;;1.33;;
58472;SDS011;44775;51.564;5.460;2022-08-21T15:35:05;6.85;;;1.60;;
58472;SDS011;44775;51.564;5.460;2022-08-21T15:37:31;5.40;;;1.48;;
58472;SDS011;44775;51.564;5.460;2022-08-21T15:39:57;4.88;;;1.45;;
58472;SDS011;44775;51.564;5.460;2022-08-21T15:42:22;7.85;;;1.63;;
58472;SDS011;44775;51.564;5.460;2022-08-21T15:44:51;5.53;;;1.60;;
58472;SDS011;44775;51.564;5.460;2022-08-21T15:47:21;5.20;;;1.60;;
58472;SDS011;44775;51.564;5.460;2022-08-21T15:49:49;7.47;;;1.60;;
58472;SDS011;44775;51.564;5.460;2022-08-21T15:52:19;7.35;;;1.95;;
58472;SDS011;44775;51.564;5.460;2022-08-21T15:54:46;4.65;;;1.67;;
58472;SDS011;44775;51.564;5.460;2022-08-21T15:57:13;5.03;;;1.70;;
58472;SDS011;44775;51.564;5.460;2022-08-21T15:59:42;4.68;;;1.48;;
58472;SDS011;44775;51.564;5.460;2022-08-21T16:02:14;6.13;;;1.95;;
58472;SDS011;44775;51.564;5.460;2022-08-21T16:04:42;5.55;;;1.90;;
58472;SDS011;44775;51.564;5.460;2022-08-21T16:07:08;6.50;;;1.75;;
58472;SDS011;44775;51.564;5.460;2022-08-21T16:09:33;5.55;;;1.80;;